sensor_id;sensor_type;location;lat;lon;timestamp;P1;durP1;ratioP1;P2;durP2;ratioP2
52104;SDS011;38103;42.776;23.112;2022-08-19T00:00:05;10.40;;;4.45;;
52104;SDS011;38103;42.776;23.112;2022-08-19T00:02:34;10.60;;;4.13;;
52104;SDS011;38103;42.776;23.112;2022-08-19T00:05:00;10.00;;;4.20;;
52104;SDS011;38103;42.776;23.112;2022-08-19T00:07:25;9.93;;;4.35;;
52104;SDS011;38103;42.776;23.112;2022-08-19T00:09:51;12.23;;;4.90;;
52104;SDS011;38103;42.776;23.112;2022-08-19T00:12:16;14.63;;;4.50;;
52104;SDS011;38103;42.776;23.112;2022-08-19T00:14:41;14.52;;;4.60;;
52104;SDS011;38103;42.776;23.112;2022-08-19T00:17:07;14.18;;;5.03;;
52104;SDS011;38103;42.776;23.112;2022-08-19T00:19:35;10.38;;;4.53;;
52104;SDS011;38103;42.776;23.112;2022-08-19T00:22:01;10.15;;;4.43;;
52104;SDS011;38103;42.776;23.112;2022-08-19T00:24:31;13.00;;;4.63;;
52104;SDS011;38103;42.776;23.112;2022-08-19T00:26:57;11.25;;;4.85;;
52104;SDS011;38103;42.776;23.112;2022-08-19T00:29:23;11.20;;;5.20;;
52104;SDS011;38103;42.776;23.112;2022-08-19T00:31:50;13.32;;;4.88;;
52104;SDS011;38103;42.776;23.112;2022-08-19T00:34:21;11.07;;;4.53;;
52104;SDS011;38103;42.776;23.112;2022-08-19T00:36:46;13.05;;;4.88;;
52104;SDS011;38103;42.776;23.112;2022-08-19T00:39:13;15.40;;;4.80;;
52104;SDS011;38103;42.776;23.112;2022-08-19T00:41:40;13.57;;;4.75;;
52104;SDS011;38103;42.776;23.112;2022-08-19T00:44:08;14.55;;;5.35;;
52104;SDS011;38103;42.776;23.112;2022-08-19T00:46:34;12.73;;;4.68;;
52104;SDS011;38103;42.776;23.112;2022-08-19T00:49:02;11.77;;;4.80;;
52104;SDS011;38103;42.776;23.112;2022-08-19T00:51:34;11.98;;;4.50;;
52104;SDS011;38103;42.776;23.112;2022-08-19T00:54:00;12.88;;;4.93;;
52104;SDS011;38103;42.776;23.112;2022-08-19T00:56:27;10.30;;;4.43;;
52104;SDS011;38103;42.776;23.112;2022-08-19T00:58:54;9.38;;;4.38;;
52104;SDS011;38103;42.776;23.112;2022-08-19T01:01:21;9.65;;;4.30;;
52104;SDS011;38103;42.776;23.112;2022-08-19T01:03:46;10.57;;;4.53;;
52104;SDS011;38103;42.776;23.112;2022-08-19T01:06:12;10.45;;;4.18;;
52104;SDS011;38103;42.776;23.112;2022-08-19T01:08:39;10.98;;;4.95;;
52104;SDS011;38103;42.776;23.112;2022-08-19T01:11:04;11.23;;;4.70;;
52104;SDS011;38103;42.776;23.112;2022-08-19T01:13:32;10.68;;;4.47;;
52104;SDS011;38103;42.776;23.112;2022-08-19T01:16:03;10.38;;;4.57;;
52104;SDS011;38103;42.776;23.112;2022-08-19T01:18:31;10.57;;;4.20;;
52104;SDS011;38103;42.776;23.112;2022-08-19T01:21:02;9.27;;;4.28;;
52104;SDS011;38103;42.776;23.112;2022-08-19T01:23:32;9.63;;;4.22;;
52104;SDS011;38103;42.776;23.112;2022-08-19T01:26:12;9.90;;;4.20;;
52104;SDS011;38103;42.776;23.112;2022-08-19T01:28:41;10.05;;;4.10;;
52104;SDS011;38103;42.776;23.112;2022-08-19T01:31:10;11.73;;;4.40;;
52104;SDS011;38103;42.776;23.112;2022-08-19T01:33:38;10.18;;;4.28;;
52104;SDS011;38103;42.776;23.112;2022-08-19T01:36:04;10.23;;;3.97;;
52104;SDS011;38103;42.776;23.112;2022-08-19T01:38:35;10.65;;;5.00;;
52104;SDS011;38103;42.776;23.112;2022-08-19T01:41:02;10.27;;;4.20;;
52104;SDS011;38103;42.776;23.112;2022-08-19T01:43:28;10.55;;;4.43;;
52104;SDS011;38103;42.776;23.112;2022-08-19T01:45:54;13.05;;;4.82;;
52104;SDS011;38103;42.776;23.112;2022-08-19T01:48:19;11.70;;;4.88;;
52104;SDS011;38103;42.776;23.112;2022-08-19T01:50:45;10.25;;;4.47;;
52104;SDS011;38103;42.776;23.112;2022-08-19T01:53:10;12.02;;;5.20;;
52104;SDS011;38103;42.776;23.112;2022-08-19T01:55:37;10.25;;;4.68;;
52104;SDS011;38103;42.776;23.112;2022-08-19T01:58:05;10.18;;;4.53;;
52104;SDS011;38103;42.776;23.112;2022-08-19T02:00:37;10.52;;;4.50;;
52104;SDS011;38103;42.776;23.112;2022-08-19T02:03:03;11.82;;;4.30;;
52104;SDS011;38103;42.776;23.112;2022-08-19T02:05:29;11.10;;;4.50;;
52104;SDS011;38103;42.776;23.112;2022-08-19T02:07:55;9.90;;;4.40;;
52104;SDS011;38103;42.776;23.112;2022-08-19T02:10:21;9.77;;;4.22;;
52104;SDS011;38103;42.776;23.112;2022-08-19T02:12:48;9.73;;;4.47;;
52104;SDS011;38103;42.776;23.112;2022-08-19T02:15:14;10.32;;;4.20;;
52104;SDS011;38103;42.776;23.112;2022-08-19T02:17:40;10.35;;;4.40;;
52104;SDS011;38103;42.776;23.112;2022-08-19T02:20:06;10.88;;;4.32;;
52104;SDS011;38103;42.776;23.112;2022-08-19T02:22:32;14.80;;;4.88;;
52104;SDS011;38103;42.776;23.112;2022-08-19T02:24:57;10.52;;;4.43;;
52104;SDS011;38103;42.776;23.112;2022-08-19T02:27:23;11.88;;;4.72;;
52104;SDS011;38103;42.776;23.112;2022-08-19T02:29:49;9.95;;;4.15;;
52104;SDS011;38103;42.776;23.112;2022-08-19T02:32:16;9.73;;;4.07;;
52104;SDS011;38103;42.776;23.112;2022-08-19T02:34:44;10.23;;;4.50;;
52104;SDS011;38103;42.776;23.112;2022-08-19T02:37:10;10.85;;;4.65;;
52104;SDS011;38103;42.776;23.112;2022-08-19T02:39:55;10.48;;;4.35;;
52104;SDS011;38103;42.776;23.112;2022-08-19T02:42:21;10.80;;;4.57;;
52104;SDS011;38103;42.776;23.112;2022-08-19T02:44:46;10.80;;;4.55;;
52104;SDS011;38103;42.776;23.112;2022-08-19T02:47:12;13.80;;;4.88;;
52104;SDS011;38103;42.776;23.112;2022-08-19T02:49:39;10.00;;;4.38;;
52104;SDS011;38103;42.776;23.112;2022-08-19T02:52:04;11.85;;;5.30;;
52104;SDS011;38103;42.776;23.112;2022-08-19T02:54:30;10.75;;;4.88;;
52104;SDS011;38103;42.776;23.112;2022-08-19T02:56:55;10.15;;;4.88;;
52104;SDS011;38103;42.776;23.112;2022-08-19T02:59:21;9.93;;;4.57;;
52104;SDS011;38103;42.776;23.112;2022-08-19T03:01:46;11.80;;;5.32;;
52104;SDS011;38103;42.776;23.112;2022-08-19T03:04:12;10.38;;;5.40;;
52104;SDS011;38103;42.776;23.112;2022-08-19T03:06:40;10.52;;;5.30;;
52104;SDS011;38103;42.776;23.112;2022-08-19T03:09:06;12.20;;;5.80;;
52104;SDS011;38103;42.776;23.112;2022-08-19T03:11:32;10.18;;;5.03;;
52104;SDS011;38103;42.776;23.112;2022-08-19T03:13:58;10.35;;;4.93;;
52104;SDS011;38103;42.776;23.112;2022-08-19T03:16:25;10.43;;;5.18;;
52104;SDS011;38103;42.776;23.112;2022-08-19T03:18:55;10.90;;;4.97;;
52104;SDS011;38103;42.776;23.112;2022-08-19T03:21:25;11.27;;;4.80;;
52104;SDS011;38103;42.776;23.112;2022-08-19T03:23:56;10.80;;;5.28;;
52104;SDS011;38103;42.776;23.112;2022-08-19T03:26:23;12.27;;;4.90;;
52104;SDS011;38103;42.776;23.112;2022-08-19T03:28:48;11.60;;;4.88;;
52104;SDS011;38103;42.776;23.112;2022-08-19T03:31:15;10.85;;;4.65;;
52104;SDS011;38103;42.776;23.112;2022-08-19T03:33:43;11.27;;;4.85;;
52104;SDS011;38103;42.776;23.112;2022-08-19T03:38:38;12.65;;;4.90;;
52104;SDS011;38103;42.776;23.112;2022-08-19T03:41:06;11.43;;;5.18;;
52104;SDS011;38103;42.776;23.112;2022-08-19T03:43:35;10.25;;;4.80;;
52104;SDS011;38103;42.776;23.112;2022-08-19T03:46:06;13.30;;;5.38;;
52104;SDS011;38103;42.776;23.112;2022-08-19T03:48:34;13.13;;;4.63;;
52104;SDS011;38103;42.776;23.112;2022-08-19T03:51:02;10.93;;;4.65;;
52104;SDS011;38103;42.776;23.112;2022-08-19T03:53:28;11.05;;;4.75;;
52104;SDS011;38103;42.776;23.112;2022-08-19T03:55:55;11.15;;;5.03;;
52104;SDS011;38103;42.776;23.112;2022-08-19T03:58:21;11.65;;;5.03;;
52104;SDS011;38103;42.776;23.112;2022-08-19T04:00:48;10.73;;;4.78;;
52104;SDS011;38103;42.776;23.112;2022-08-19T04:03:14;10.77;;;4.55;;
52104;SDS011;38103;42.776;23.112;2022-08-19T04:05:39;10.05;;;4.60;;
52104;SDS011;38103;42.776;23.112;2022-08-19T04:08:05;10.30;;;4.60;;
52104;SDS011;38103;42.776;23.112;2022-08-19T04:10:31;10.95;;;4.75;;
52104;SDS011;38103;42.776;23.112;2022-08-19T04:13:06;10.02;;;4.38;;
52104;SDS011;38103;42.776;23.112;2022-08-19T04:15:38;11.75;;;4.40;;
52104;SDS011;38103;42.776;23.112;2022-08-19T04:18:06;11.73;;;4.97;;
52104;SDS011;38103;42.776;23.112;2022-08-19T04:20:37;12.90;;;5.22;;
52104;SDS011;38103;42.776;23.112;2022-08-19T04:23:04;12.88;;;5.28;;
52104;SDS011;38103;42.776;23.112;2022-08-19T04:25:34;11.35;;;5.15;;
52104;SDS011;38103;42.776;23.112;2022-08-19T04:28:04;13.43;;;4.80;;
52104;SDS011;38103;42.776;23.112;2022-08-19T04:30:30;14.07;;;4.75;;
52104;SDS011;38103;42.776;23.112;2022-08-19T04:33:02;11.32;;;5.13;;
52104;SDS011;38103;42.776;23.112;2022-08-19T04:35:33;15.52;;;5.53;;
52104;SDS011;38103;42.776;23.112;2022-08-19T04:38:03;11.43;;;4.40;;
52104;SDS011;38103;42.776;23.112;2022-08-19T04:40:29;11.10;;;4.50;;
52104;SDS011;38103;42.776;23.112;2022-08-19T04:45:39;10.38;;;4.85;;
52104;SDS011;38103;42.776;23.112;2022-08-19T04:48:05;13.05;;;4.55;;
52104;SDS011;38103;42.776;23.112;2022-08-19T04:50:30;10.80;;;4.43;;
52104;SDS011;38103;42.776;23.112;2022-08-19T04:52:56;12.82;;;4.50;;
52104;SDS011;38103;42.776;23.112;2022-08-19T04:55:21;13.45;;;5.15;;
52104;SDS011;38103;42.776;23.112;2022-08-19T04:57:47;13.35;;;4.75;;
52104;SDS011;38103;42.776;23.112;2022-08-19T05:00:12;11.23;;;4.82;;
52104;SDS011;38103;42.776;23.112;2022-08-19T05:02:38;14.23;;;4.63;;
52104;SDS011;38103;42.776;23.112;2022-08-19T05:05:03;10.57;;;4.35;;
52104;SDS011;38103;42.776;23.112;2022-08-19T05:07:31;10.57;;;4.90;;
52104;SDS011;38103;42.776;23.112;2022-08-19T05:09:56;9.80;;;4.50;;
52104;SDS011;38103;42.776;23.112;2022-08-19T05:12:22;12.18;;;4.90;;
52104;SDS011;38103;42.776;23.112;2022-08-19T05:14:47;10.32;;;4.65;;
52104;SDS011;38103;42.776;23.112;2022-08-19T05:17:14;10.93;;;4.93;;
52104;SDS011;38103;42.776;23.112;2022-08-19T05:19:40;10.93;;;4.50;;
52104;SDS011;38103;42.776;23.112;2022-08-19T05:22:23;12.07;;;4.88;;
52104;SDS011;38103;42.776;23.112;2022-08-19T05:24:59;11.30;;;5.18;;
52104;SDS011;38103;42.776;23.112;2022-08-19T05:27:27;11.80;;;5.57;;
52104;SDS011;38103;42.776;23.112;2022-08-19T05:29:53;11.98;;;5.20;;
52104;SDS011;38103;42.776;23.112;2022-08-19T05:32:18;13.15;;;5.35;;
52104;SDS011;38103;42.776;23.112;2022-08-19T05:34:44;12.93;;;5.38;;
52104;SDS011;38103;42.776;23.112;2022-08-19T05:37:09;13.05;;;5.85;;
52104;SDS011;38103;42.776;23.112;2022-08-19T05:39:35;14.45;;;5.97;;
52104;SDS011;38103;42.776;23.112;2022-08-19T05:42:06;12.82;;;5.38;;
52104;SDS011;38103;42.776;23.112;2022-08-19T05:44:35;11.90;;;5.68;;
52104;SDS011;38103;42.776;23.112;2022-08-19T05:47:04;11.95;;;5.40;;
52104;SDS011;38103;42.776;23.112;2022-08-19T05:49:33;11.40;;;5.47;;
52104;SDS011;38103;42.776;23.112;2022-08-19T05:52:01;10.55;;;5.10;;
52104;SDS011;38103;42.776;23.112;2022-08-19T05:54:32;11.85;;;5.53;;
52104;SDS011;38103;42.776;23.112;2022-08-19T05:56:57;15.70;;;5.63;;
52104;SDS011;38103;42.776;23.112;2022-08-19T05:59:23;12.23;;;5.30;;
52104;SDS011;38103;42.776;23.112;2022-08-19T06:01:49;11.45;;;5.72;;
52104;SDS011;38103;42.776;23.112;2022-08-19T06:04:17;12.05;;;5.47;;
52104;SDS011;38103;42.776;23.112;2022-08-19T06:06:45;11.57;;;5.38;;
52104;SDS011;38103;42.776;23.112;2022-08-19T06:09:12;13.15;;;5.20;;
52104;SDS011;38103;42.776;23.112;2022-08-19T06:11:59;10.65;;;5.50;;
52104;SDS011;38103;42.776;23.112;2022-08-19T06:14:26;11.48;;;5.22;;
52104;SDS011;38103;42.776;23.112;2022-08-19T06:16:55;10.80;;;5.68;;
52104;SDS011;38103;42.776;23.112;2022-08-19T06:19:22;13.30;;;5.72;;
52104;SDS011;38103;42.776;23.112;2022-08-19T06:21:49;15.95;;;5.88;;
52104;SDS011;38103;42.776;23.112;2022-08-19T06:24:20;13.85;;;5.85;;
52104;SDS011;38103;42.776;23.112;2022-08-19T06:26:50;11.50;;;6.00;;
52104;SDS011;38103;42.776;23.112;2022-08-19T06:29:18;14.23;;;6.20;;
52104;SDS011;38103;42.776;23.112;2022-08-19T06:31:46;12.43;;;6.00;;
52104;SDS011;38103;42.776;23.112;2022-08-19T06:34:14;12.50;;;5.80;;
52104;SDS011;38103;42.776;23.112;2022-08-19T06:36:42;11.98;;;6.05;;
52104;SDS011;38103;42.776;23.112;2022-08-19T06:39:11;15.48;;;6.13;;
52104;SDS011;38103;42.776;23.112;2022-08-19T06:41:42;17.45;;;6.00;;
52104;SDS011;38103;42.776;23.112;2022-08-19T06:44:09;13.60;;;5.72;;
52104;SDS011;38103;42.776;23.112;2022-08-19T06:46:35;16.48;;;5.97;;
52104;SDS011;38103;42.776;23.112;2022-08-19T06:49:02;16.08;;;6.30;;
52104;SDS011;38103;42.776;23.112;2022-08-19T06:51:28;14.10;;;6.55;;
52104;SDS011;38103;42.776;23.112;2022-08-19T06:53:54;14.13;;;5.93;;
52104;SDS011;38103;42.776;23.112;2022-08-19T06:56:21;19.90;;;6.40;;
52104;SDS011;38103;42.776;23.112;2022-08-19T06:58:50;13.48;;;6.03;;
52104;SDS011;38103;42.776;23.112;2022-08-19T07:01:17;11.63;;;5.60;;
52104;SDS011;38103;42.776;23.112;2022-08-19T07:03:43;13.18;;;6.38;;
52104;SDS011;38103;42.776;23.112;2022-08-19T07:06:10;11.93;;;6.07;;
52104;SDS011;38103;42.776;23.112;2022-08-19T07:08:40;12.05;;;6.18;;
52104;SDS011;38103;42.776;23.112;2022-08-19T07:11:08;11.18;;;5.63;;
52104;SDS011;38103;42.776;23.112;2022-08-19T07:13:35;13.35;;;5.60;;
52104;SDS011;38103;42.776;23.112;2022-08-19T07:16:08;17.98;;;6.10;;
52104;SDS011;38103;42.776;23.112;2022-08-19T07:18:47;13.77;;;6.00;;
52104;SDS011;38103;42.776;23.112;2022-08-19T07:21:17;12.75;;;6.00;;
52104;SDS011;38103;42.776;23.112;2022-08-19T07:23:45;10.57;;;5.28;;
52104;SDS011;38103;42.776;23.112;2022-08-19T07:26:19;15.50;;;6.00;;
52104;SDS011;38103;42.776;23.112;2022-08-19T07:28:49;12.55;;;5.68;;
52104;SDS011;38103;42.776;23.112;2022-08-19T07:31:16;15.63;;;5.53;;
52104;SDS011;38103;42.776;23.112;2022-08-19T07:33:43;13.23;;;5.53;;
52104;SDS011;38103;42.776;23.112;2022-08-19T07:36:11;12.55;;;5.43;;
52104;SDS011;38103;42.776;23.112;2022-08-19T07:38:38;13.43;;;5.57;;
52104;SDS011;38103;42.776;23.112;2022-08-19T07:41:06;13.48;;;5.70;;
52104;SDS011;38103;42.776;23.112;2022-08-19T07:43:32;12.27;;;5.65;;
52104;SDS011;38103;42.776;23.112;2022-08-19T07:45:58;12.68;;;5.63;;
52104;SDS011;38103;42.776;23.112;2022-08-19T07:48:24;12.05;;;5.80;;
52104;SDS011;38103;42.776;23.112;2022-08-19T07:50:55;13.02;;;5.80;;
52104;SDS011;38103;42.776;23.112;2022-08-19T07:53:23;11.63;;;5.80;;
52104;SDS011;38103;42.776;23.112;2022-08-19T07:55:49;13.40;;;5.53;;
52104;SDS011;38103;42.776;23.112;2022-08-19T07:58:17;15.80;;;5.68;;
52104;SDS011;38103;42.776;23.112;2022-08-19T08:00:45;12.65;;;5.32;;
52104;SDS011;38103;42.776;23.112;2022-08-19T08:03:12;12.98;;;5.70;;
52104;SDS011;38103;42.776;23.112;2022-08-19T08:05:38;11.15;;;5.38;;
52104;SDS011;38103;42.776;23.112;2022-08-19T08:08:23;12.60;;;5.20;;
52104;SDS011;38103;42.776;23.112;2022-08-19T08:11:07;21.38;;;6.05;;
52104;SDS011;38103;42.776;23.112;2022-08-19T08:13:35;12.27;;;5.50;;
52104;SDS011;38103;42.776;23.112;2022-08-19T08:16:01;10.32;;;5.10;;
52104;SDS011;38103;42.776;23.112;2022-08-19T08:18:27;13.52;;;5.43;;
52104;SDS011;38103;42.776;23.112;2022-08-19T08:20:53;11.48;;;5.07;;
52104;SDS011;38103;42.776;23.112;2022-08-19T08:23:22;10.35;;;5.25;;
52104;SDS011;38103;42.776;23.112;2022-08-19T08:25:50;10.73;;;4.97;;
52104;SDS011;38103;42.776;23.112;2022-08-19T08:28:17;11.10;;;5.30;;
52104;SDS011;38103;42.776;23.112;2022-08-19T08:30:44;13.73;;;5.30;;
52104;SDS011;38103;42.776;23.112;2022-08-19T08:33:12;13.65;;;5.15;;
52104;SDS011;38103;42.776;23.112;2022-08-19T08:35:39;11.48;;;5.13;;
52104;SDS011;38103;42.776;23.112;2022-08-19T08:38:07;11.00;;;4.28;;
52104;SDS011;38103;42.776;23.112;2022-08-19T08:40:42;9.82;;;4.63;;
52104;SDS011;38103;42.776;23.112;2022-08-19T08:43:19;10.05;;;4.35;;
52104;SDS011;38103;42.776;23.112;2022-08-19T08:46:13;11.82;;;4.50;;
52104;SDS011;38103;42.776;23.112;2022-08-19T08:48:58;9.32;;;4.07;;
52104;SDS011;38103;42.776;23.112;2022-08-19T08:51:38;12.75;;;4.43;;
52104;SDS011;38103;42.776;23.112;2022-08-19T08:54:10;11.32;;;4.30;;
52104;SDS011;38103;42.776;23.112;2022-08-19T08:56:38;11.60;;;4.43;;
52104;SDS011;38103;42.776;23.112;2022-08-19T08:59:16;10.40;;;4.72;;
52104;SDS011;38103;42.776;23.112;2022-08-19T09:01:51;11.25;;;4.45;;
52104;SDS011;38103;42.776;23.112;2022-08-19T09:04:17;10.35;;;4.35;;
52104;SDS011;38103;42.776;23.112;2022-08-19T09:06:47;11.25;;;4.25;;
52104;SDS011;38103;42.776;23.112;2022-08-19T09:16:56;10.43;;;3.47;;
52104;SDS011;38103;42.776;23.112;2022-08-19T09:19:22;10.38;;;3.50;;
52104;SDS011;38103;42.776;23.112;2022-08-19T09:21:47;8.60;;;3.50;;
52104;SDS011;38103;42.776;23.112;2022-08-19T09:24:14;8.98;;;3.40;;
52104;SDS011;38103;42.776;23.112;2022-08-19T09:26:39;8.43;;;3.20;;
52104;SDS011;38103;42.776;23.112;2022-08-19T09:29:05;10.02;;;3.30;;
52104;SDS011;38103;42.776;23.112;2022-08-19T09:31:31;9.27;;;3.70;;
52104;SDS011;38103;42.776;23.112;2022-08-19T09:33:57;9.20;;;3.70;;
52104;SDS011;38103;42.776;23.112;2022-08-19T09:36:24;9.38;;;3.15;;
52104;SDS011;38103;42.776;23.112;2022-08-19T09:38:51;12.40;;;3.72;;
52104;SDS011;38103;42.776;23.112;2022-08-19T09:41:19;8.68;;;3.35;;
52104;SDS011;38103;42.776;23.112;2022-08-19T09:43:49;10.13;;;3.80;;
52104;SDS011;38103;42.776;23.112;2022-08-19T09:46:21;10.45;;;3.50;;
52104;SDS011;38103;42.776;23.112;2022-08-19T09:48:48;8.10;;;3.15;;
52104;SDS011;38103;42.776;23.112;2022-08-19T09:51:19;8.30;;;3.20;;
52104;SDS011;38103;42.776;23.112;2022-08-19T09:53:48;9.27;;;3.55;;
52104;SDS011;38103;42.776;23.112;2022-08-19T09:56:18;9.10;;;3.40;;
52104;SDS011;38103;42.776;23.112;2022-08-19T09:58:45;10.13;;;3.50;;
52104;SDS011;38103;42.776;23.112;2022-08-19T10:01:15;9.57;;;3.60;;
52104;SDS011;38103;42.776;23.112;2022-08-19T10:03:53;9.85;;;3.70;;
52104;SDS011;38103;42.776;23.112;2022-08-19T10:06:21;9.35;;;3.50;;
52104;SDS011;38103;42.776;23.112;2022-08-19T10:08:48;9.25;;;3.75;;
52104;SDS011;38103;42.776;23.112;2022-08-19T10:11:14;9.70;;;3.72;;
52104;SDS011;38103;42.776;23.112;2022-08-19T10:13:42;9.07;;;3.60;;
52104;SDS011;38103;42.776;23.112;2022-08-19T10:16:10;10.43;;;4.63;;
52104;SDS011;38103;42.776;23.112;2022-08-19T10:18:38;12.65;;;3.90;;
52104;SDS011;38103;42.776;23.112;2022-08-19T10:21:14;10.32;;;3.83;;
52104;SDS011;38103;42.776;23.112;2022-08-19T10:23:43;11.68;;;4.15;;
52104;SDS011;38103;42.776;23.112;2022-08-19T10:26:11;10.55;;;4.00;;
52104;SDS011;38103;42.776;23.112;2022-08-19T10:28:42;9.80;;;3.40;;
52104;SDS011;38103;42.776;23.112;2022-08-19T10:31:09;11.35;;;3.60;;
52104;SDS011;38103;42.776;23.112;2022-08-19T10:33:37;12.57;;;3.85;;
52104;SDS011;38103;42.776;23.112;2022-08-19T10:36:04;11.73;;;3.90;;
52104;SDS011;38103;42.776;23.112;2022-08-19T10:38:33;9.10;;;3.97;;
52104;SDS011;38103;42.776;23.112;2022-08-19T10:41:10;12.30;;;3.75;;
52104;SDS011;38103;42.776;23.112;2022-08-19T10:43:38;11.18;;;3.67;;
52104;SDS011;38103;42.776;23.112;2022-08-19T10:46:08;12.07;;;3.78;;
52104;SDS011;38103;42.776;23.112;2022-08-19T10:48:35;10.10;;;4.00;;
52104;SDS011;38103;42.776;23.112;2022-08-19T10:51:02;11.02;;;3.97;;
52104;SDS011;38103;42.776;23.112;2022-08-19T10:53:47;11.35;;;3.92;;
52104;SDS011;38103;42.776;23.112;2022-08-19T10:56:13;10.88;;;3.78;;
52104;SDS011;38103;42.776;23.112;2022-08-19T10:58:58;8.90;;;3.45;;
52104;SDS011;38103;42.776;23.112;2022-08-19T11:01:24;9.85;;;3.53;;
52104;SDS011;38103;42.776;23.112;2022-08-19T11:03:51;10.65;;;3.90;;
52104;SDS011;38103;42.776;23.112;2022-08-19T11:06:17;11.73;;;3.50;;
52104;SDS011;38103;42.776;23.112;2022-08-19T11:08:44;10.05;;;3.80;;
52104;SDS011;38103;42.776;23.112;2022-08-19T11:11:10;8.85;;;3.70;;
52104;SDS011;38103;42.776;23.112;2022-08-19T11:13:38;9.35;;;3.78;;
52104;SDS011;38103;42.776;23.112;2022-08-19T11:16:09;11.85;;;4.13;;
52104;SDS011;38103;42.776;23.112;2022-08-19T11:18:39;9.52;;;3.70;;
52104;SDS011;38103;42.776;23.112;2022-08-19T11:21:50;9.93;;;3.88;;
52104;SDS011;38103;42.776;23.112;2022-08-19T11:23:58;11.43;;;3.50;;
52104;SDS011;38103;42.776;23.112;2022-08-19T11:26:25;9.32;;;3.47;;
52104;SDS011;38103;42.776;23.112;2022-08-19T11:28:52;10.60;;;3.97;;
52104;SDS011;38103;42.776;23.112;2022-08-19T11:31:22;10.05;;;3.65;;
52104;SDS011;38103;42.776;23.112;2022-08-19T11:33:50;9.75;;;3.47;;
52104;SDS011;38103;42.776;23.112;2022-08-19T11:36:16;11.50;;;3.72;;
52104;SDS011;38103;42.776;23.112;2022-08-19T11:38:43;10.10;;;3.65;;
52104;SDS011;38103;42.776;23.112;2022-08-19T11:41:09;9.13;;;3.50;;
52104;SDS011;38103;42.776;23.112;2022-08-19T11:43:35;9.75;;;3.78;;
52104;SDS011;38103;42.776;23.112;2022-08-19T11:46:05;9.95;;;3.70;;
52104;SDS011;38103;42.776;23.112;2022-08-19T11:48:33;9.05;;;3.45;;
52104;SDS011;38103;42.776;23.112;2022-08-19T11:51:02;9.27;;;3.60;;
52104;SDS011;38103;42.776;23.112;2022-08-19T11:53:31;10.27;;;4.00;;
52104;SDS011;38103;42.776;23.112;2022-08-19T11:55:57;10.10;;;3.35;;
52104;SDS011;38103;42.776;23.112;2022-08-19T11:58:23;11.35;;;3.70;;
52104;SDS011;38103;42.776;23.112;2022-08-19T12:00:49;9.35;;;3.40;;
52104;SDS011;38103;42.776;23.112;2022-08-19T12:03:15;9.38;;;3.53;;
52104;SDS011;38103;42.776;23.112;2022-08-19T12:05:41;10.45;;;3.65;;
52104;SDS011;38103;42.776;23.112;2022-08-19T12:08:07;9.75;;;3.50;;
52104;SDS011;38103;42.776;23.112;2022-08-19T12:10:33;11.15;;;3.55;;
52104;SDS011;38103;42.776;23.112;2022-08-19T12:12:59;9.35;;;3.88;;
52104;SDS011;38103;42.776;23.112;2022-08-19T12:15:26;11.32;;;3.80;;
52104;SDS011;38103;42.776;23.112;2022-08-19T12:17:55;9.38;;;3.67;;
52104;SDS011;38103;42.776;23.112;2022-08-19T12:20:22;11.52;;;3.72;;
52104;SDS011;38103;42.776;23.112;2022-08-19T12:22:48;9.80;;;3.75;;
52104;SDS011;38103;42.776;23.112;2022-08-19T12:25:14;10.35;;;3.63;;
52104;SDS011;38103;42.776;23.112;2022-08-19T12:27:39;11.50;;;3.95;;
52104;SDS011;38103;42.776;23.112;2022-08-19T12:30:05;10.02;;;3.65;;
52104;SDS011;38103;42.776;23.112;2022-08-19T12:32:33;10.35;;;3.85;;
52104;SDS011;38103;42.776;23.112;2022-08-19T12:34:58;13.52;;;3.92;;
52104;SDS011;38103;42.776;23.112;2022-08-19T12:37:24;10.95;;;3.72;;
52104;SDS011;38103;42.776;23.112;2022-08-19T12:39:49;10.13;;;3.88;;
52104;SDS011;38103;42.776;23.112;2022-08-19T12:42:15;9.38;;;3.60;;
52104;SDS011;38103;42.776;23.112;2022-08-19T12:44:41;10.40;;;3.42;;
52104;SDS011;38103;42.776;23.112;2022-08-19T12:47:08;10.25;;;3.80;;
52104;SDS011;38103;42.776;23.112;2022-08-19T12:49:34;10.30;;;4.03;;
52104;SDS011;38103;42.776;23.112;2022-08-19T12:52:02;12.40;;;5.97;;
52104;SDS011;38103;42.776;23.112;2022-08-19T12:54:28;11.20;;;4.13;;
52104;SDS011;38103;42.776;23.112;2022-08-19T12:56:55;13.65;;;4.55;;
52104;SDS011;38103;42.776;23.112;2022-08-19T12:59:21;11.02;;;4.05;;
52104;SDS011;38103;42.776;23.112;2022-08-19T13:01:47;8.80;;;3.35;;
52104;SDS011;38103;42.776;23.112;2022-08-19T13:04:12;11.15;;;3.88;;
52104;SDS011;38103;42.776;23.112;2022-08-19T13:06:38;9.95;;;3.88;;
52104;SDS011;38103;42.776;23.112;2022-08-19T13:09:03;10.90;;;3.80;;
52104;SDS011;38103;42.776;23.112;2022-08-19T13:11:29;11.27;;;3.80;;
52104;SDS011;38103;42.776;23.112;2022-08-19T13:13:57;11.32;;;3.40;;
52104;SDS011;38103;42.776;23.112;2022-08-19T13:16:23;13.90;;;4.05;;
52104;SDS011;38103;42.776;23.112;2022-08-19T13:18:51;11.68;;;3.90;;
52104;SDS011;38103;42.776;23.112;2022-08-19T13:21:18;8.90;;;3.45;;
52104;SDS011;38103;42.776;23.112;2022-08-19T13:23:45;10.18;;;4.07;;
52104;SDS011;38103;42.776;23.112;2022-08-19T13:26:11;11.30;;;3.85;;
52104;SDS011;38103;42.776;23.112;2022-08-19T13:28:38;11.13;;;3.60;;
52104;SDS011;38103;42.776;23.112;2022-08-19T13:31:24;10.88;;;3.58;;
52104;SDS011;38103;42.776;23.112;2022-08-19T13:34:10;11.05;;;3.90;;
52104;SDS011;38103;42.776;23.112;2022-08-19T13:36:37;14.27;;;3.70;;
52104;SDS011;38103;42.776;23.112;2022-08-19T13:39:03;10.10;;;3.83;;
52104;SDS011;38103;42.776;23.112;2022-08-19T13:41:29;10.10;;;3.83;;
52104;SDS011;38103;42.776;23.112;2022-08-19T13:43:55;9.98;;;3.63;;
52104;SDS011;38103;42.776;23.112;2022-08-19T13:46:20;10.13;;;3.60;;
52104;SDS011;38103;42.776;23.112;2022-08-19T13:48:46;9.00;;;3.83;;
52104;SDS011;38103;42.776;23.112;2022-08-19T13:51:16;12.15;;;4.07;;
52104;SDS011;38103;42.776;23.112;2022-08-19T13:53:42;12.45;;;4.07;;
52104;SDS011;38103;42.776;23.112;2022-08-19T13:56:10;12.07;;;3.97;;
52104;SDS011;38103;42.776;23.112;2022-08-19T13:58:37;9.60;;;3.60;;
52104;SDS011;38103;42.776;23.112;2022-08-19T14:01:03;10.65;;;3.97;;
52104;SDS011;38103;42.776;23.112;2022-08-19T14:03:30;10.98;;;3.97;;
52104;SDS011;38103;42.776;23.112;2022-08-19T14:05:56;13.52;;;4.20;;
52104;SDS011;38103;42.776;23.112;2022-08-19T14:08:22;14.57;;;3.92;;
52104;SDS011;38103;42.776;23.112;2022-08-19T14:10:47;10.70;;;3.85;;
52104;SDS011;38103;42.776;23.112;2022-08-19T14:13:17;10.70;;;3.60;;
52104;SDS011;38103;42.776;23.112;2022-08-19T14:15:45;9.23;;;3.60;;
52104;SDS011;38103;42.776;23.112;2022-08-19T14:18:12;13.07;;;4.07;;
52104;SDS011;38103;42.776;23.112;2022-08-19T14:20:37;10.82;;;3.65;;
52104;SDS011;38103;42.776;23.112;2022-08-19T14:23:03;9.43;;;3.47;;
52104;SDS011;38103;42.776;23.112;2022-08-19T14:25:30;10.05;;;3.70;;
52104;SDS011;38103;42.776;23.112;2022-08-19T14:27:57;10.18;;;3.80;;
52104;SDS011;38103;42.776;23.112;2022-08-19T14:30:24;9.50;;;3.55;;
52104;SDS011;38103;42.776;23.112;2022-08-19T14:32:52;10.38;;;3.65;;
52104;SDS011;38103;42.776;23.112;2022-08-19T14:35:19;12.23;;;3.72;;
52104;SDS011;38103;42.776;23.112;2022-08-19T14:37:47;15.25;;;3.85;;
52104;SDS011;38103;42.776;23.112;2022-08-19T14:40:14;11.40;;;4.15;;